Churchill Airport
CYYQ : now visible

Airfield :











YOU CAN JOIN US ON...

 
LOGIN :

Register | Disclaimer

   EN    FR    IT 

 









Legend :    VFR   Marginal VFR   IFR   Intensive IFR   Very Intensive IFR
Visi :
Ceiling :
>= 8 km
>= 3000ft
5 to 8 km
1000 to 3000 ft
1500m to 5 km
500 to 1000 ft
800 to 1500m
200 to 500 ft
< 800m
< 200 ft
Symbols :   Thunderstorms  Fog  Heavy snow  Heavy precipitations  Wind > 20 kt






- Airport Elevation : 94 ft
- IATA code : YYQ


CYYQ - Churchill

CURRENT METAR :
  • 191100Z 10023G34KT 15SM -SHRA BKN008 OVC150 09/08 A2952 RMK SF7AC1 CVCTV CLD EMBD SLP999

EXPIRED METARs :
  • 191030Z 10020G27KT 15SM -SHRA BKN008 OVC140 09/08 A2954 RMK SF6AC2 CVCTV CLD EMBD SLP006
  • 191000Z 10021G28KT 12SM -SHRA SCT006 BKN065 OVC150 09/08 A2955 RMK SF4SC1AC3 CVCTV CLD EBMD SLP011
  • 190900Z 10021G27KT 10SM -SHRA FEW006 BKN065 OVC150 08/08 A2958 RMK SF2SC3AC3 CVCTV CLD EMBD SLP020

TAF TAF CYYQ
Valid from the 19 at 12:00 until the 20 at 12:00 UTC


191138Z 1912/2012 10020G30KT 6SM -RA BR BKN006 OVC060
TEMPO 1912/1916 P6SM NSW SCT006 OVC060
PROB30 1912/1916 2SM -RA BR OVC004
FM191600 12025G35KT 6SM -RA BR OVC008
FM192200 14020G30KT P6SM -SHRA BKN010 OVC030
FM200200 26020G30KT P6SM OVC006 RMK NXT FCST BY 191800Z
CZWG FIR / North America



MET'MAP, your aeronautical weather chart ! - Copyright ORBIFLY December 2007 - Disclaimer

ORBIFLY MET'MAP TEAM :

Programming & Development : Alexandra Zaïnal
Concept & original design : Baudouin d'Aumeries
Assistance for programming : Marc-Olivier Méhu
Technical & hardware support : Manuel Goepfert

Contact : metmap@orbifly.com




SOURCES & CREDITS :

   NOAA       Earth
Advisory